WZZ95 LHBP-EBCI
Flight info
| Callsign | WZZ95 |
|---|---|
| Flight time | N/A |
| Altitude | 36000 |
| Route | GILEP DCT ZOLKU DCT BEGLA DCT DEXIT DCT EXITI DCT TEKTU DCT TESGA DCT UMUPU T880 BATTY |
| Aircraft | A321/M-SDE1E2E3FGIJ1J4RWXY/LB1 |
Departure
| Time | N/A |
|---|---|
| Airport | Budapest Liszt Ferenc International Airport (LHBP) |
Arrival
| Time | 2026-05-01 07:38 |
|---|---|
| Airport | Brussels South Charleroi Airport (EBCI) |
| Time | Latitude | Longitude | Altitude | Speed | Heading |
|---|---|---|---|---|---|
| 2026-05-01 07:23 | 50.61349 | 6.15650 | 20466 ft | 350 kts | 280° |
| 2026-05-01 07:23 | 50.62242 | 6.08072 | 19655 ft | 349 kts | 279° |
| 2026-05-01 07:24 | 50.62682 | 6.04315 | 19358 ft | 350 kts | 279° |
| 2026-05-01 07:24 | 50.63128 | 6.00474 | 19301 ft | 360 kts | 279° |
| 2026-05-01 07:24 | 50.63577 | 5.96567 | 19106 ft | 365 kts | 279° |
| 2026-05-01 07:24 | 50.64033 | 5.92559 | 18207 ft | 377 kts | 279° |
| 2026-05-01 07:25 | 50.64497 | 5.88475 | 17529 ft | 380 kts | 279° |
| 2026-05-01 07:25 | 50.64911 | 5.84384 | 17065 ft | 375 kts | 273° |
| 2026-05-01 07:25 | 50.65026 | 5.80304 | 16633 ft | 370 kts | 270° |
| 2026-05-01 07:25 | 50.65115 | 5.76271 | 16197 ft | 366 kts | 270° |
| 2026-05-01 07:26 | 50.65200 | 5.72278 | 15769 ft | 363 kts | 270° |
| 2026-05-01 07:26 | 50.65284 | 5.68323 | 15346 ft | 359 kts | 269° |
| 2026-05-01 07:26 | 50.65367 | 5.64405 | 14921 ft | 356 kts | 269° |
| 2026-05-01 07:26 | 50.65449 | 5.60525 | 14494 ft | 354 kts | 269° |
| 2026-05-01 07:27 | 50.65527 | 5.56666 | 14076 ft | 351 kts | 269° |
| 2026-05-01 07:27 | 50.65602 | 5.52829 | 13635 ft | 348 kts | 269° |
| 2026-05-01 07:27 | 50.65675 | 5.49044 | 13240 ft | 344 kts | 269° |
| 2026-05-01 07:27 | 50.65746 | 5.45291 | 12825 ft | 341 kts | 269° |
| 2026-05-01 07:28 | 50.65818 | 5.41579 | 12427 ft | 337 kts | 269° |
| 2026-05-01 07:28 | 50.65889 | 5.37902 | 12031 ft | 334 kts | 269° |
| 2026-05-01 07:28 | 50.65957 | 5.34254 | 11639 ft | 332 kts | 269° |
| 2026-05-01 07:28 | 50.66022 | 5.30634 | 11251 ft | 329 kts | 269° |
| 2026-05-01 07:29 | 50.66082 | 5.27036 | 10863 ft | 327 kts | 269° |
| 2026-05-01 07:29 | 50.66140 | 5.23463 | 10487 ft | 325 kts | 269° |
| 2026-05-01 07:29 | 50.66199 | 5.19951 | 10326 ft | 315 kts | 269° |
| 2026-05-01 07:29 | 50.66174 | 5.16537 | 10030 ft | 308 kts | 260° |
| 2026-05-01 07:30 | 50.65677 | 5.13282 | 9586 ft | 304 kts | 244° |
| 2026-05-01 07:30 | 50.64819 | 5.10291 | 9259 ft | 298 kts | 241° |
| 2026-05-01 07:30 | 50.63947 | 5.07309 | 8848 ft | 298 kts | 241° |
| 2026-05-01 07:30 | 50.63090 | 5.04355 | 8513 ft | 296 kts | 242° |
| 2026-05-01 07:31 | 50.62240 | 5.01413 | 8149 ft | 295 kts | 242° |
| 2026-05-01 07:31 | 50.59695 | 4.92632 | 7079 ft | 290 kts | 242° |
| 2026-05-01 07:32 | 50.58036 | 4.86930 | 6307 ft | 282 kts | 242° |
| 2026-05-01 07:32 | 50.57220 | 4.84139 | 5826 ft | 279 kts | 242° |
| 2026-05-01 07:33 | 50.55662 | 4.78879 | 5396 ft | 247 kts | 243° |
| 2026-05-01 07:33 | 50.54975 | 4.76476 | 5049 ft | 233 kts | 243° |
| 2026-05-01 07:33 | 50.53708 | 4.72054 | 4188 ft | 216 kts | 242° |
| 2026-05-01 07:34 | 50.53095 | 4.69920 | 3719 ft | 214 kts | 242° |
| 2026-05-01 07:34 | 50.51936 | 4.65881 | 3227 ft | 192 kts | 242° |
| 2026-05-01 07:34 | 50.51398 | 4.64013 | 2976 ft | 183 kts | 240° |
| 2026-05-01 07:35 | 50.50885 | 4.62229 | 2747 ft | 174 kts | 241° |
| 2026-05-01 07:35 | 50.50412 | 4.60585 | 2534 ft | 156 kts | 241° |
| 2026-05-01 07:35 | 50.49983 | 4.59076 | 2288 ft | 147 kts | 240° |
| 2026-05-01 07:35 | 50.49568 | 4.57636 | 2101 ft | 143 kts | 238° |
| 2026-05-01 07:36 | 50.49160 | 4.56211 | 1882 ft | 143 kts | 238° |
| 2026-05-01 07:36 | 50.48746 | 4.54803 | 1727 ft | 141 kts | 239° |
| 2026-05-01 07:36 | 50.48344 | 4.53400 | 1511 ft | 140 kts | 240° |
| 2026-05-01 07:36 | 50.47933 | 4.51980 | 1311 ft | 145 kts | 241° |
| 2026-05-01 07:37 | 50.47096 | 4.49105 | 931 ft | 144 kts | 240° |
| 2026-05-01 07:37 | 50.46681 | 4.47675 | 723 ft | 144 kts | 241° |
| 2026-05-01 07:37 | 50.46267 | 4.46257 | 591 ft | 133 kts | 244° |
| 2026-05-01 07:38 | 50.45959 | 4.45189 | 590 ft | 62 kts | 246° |
| 2026-05-01 07:38 | 50.45868 | 4.44883 | 595 ft | 11 kts | 249° |
| 2026-05-01 07:38 | 50.45945 | 4.44778 | 597 ft | 10 kts | 334° |
| 2026-05-01 07:39 | 50.46010 | 4.44785 | 596 ft | 10 kts | 34° |
| 2026-05-01 07:39 | 50.46048 | 4.44883 | 597 ft | 11 kts | 67° |
| 2026-05-01 07:39 | 50.46123 | 4.45139 | 598 ft | 14 kts | 66° |
| 2026-05-01 07:40 | 50.46162 | 4.45275 | 599 ft | 14 kts | 65° |
| 2026-05-01 07:40 | 50.46205 | 4.45424 | 599 ft | 16 kts | 65° |
| 2026-05-01 07:40 | 50.46252 | 4.45586 | 599 ft | 17 kts | 65° |
| 2026-05-01 07:40 | 50.46305 | 4.45767 | 597 ft | 19 kts | 65° |
| 2026-05-01 07:41 | 50.46359 | 4.45951 | 597 ft | 19 kts | 65° |
| 2026-05-01 07:41 | 50.46416 | 4.46150 | 591 ft | 21 kts | 65° |
| 2026-05-01 07:41 | 50.46535 | 4.46559 | 590 ft | 20 kts | 65° |
| 2026-05-01 07:42 | 50.46588 | 4.46740 | 591 ft | 15 kts | 65° |
| 2026-05-01 07:42 | 50.46642 | 4.46799 | 591 ft | 10 kts | 353° |
| 2026-05-01 07:42 | 50.46695 | 4.46856 | 590 ft | 11 kts | 60° |
| 2026-05-01 07:42 | 50.46731 | 4.46977 | 589 ft | 13 kts | 65° |
| 2026-05-01 07:43 | 50.46760 | 4.47076 | 588 ft | 6 kts | 65° |
| 2026-05-01 07:43 | 50.46790 | 4.47089 | 587 ft | 7 kts | 346° |
| 2026-05-01 07:43 | 50.46844 | 4.47050 | 585 ft | 1 kts | 335° |
| 2026-05-01 07:44 | 50.46856 | 4.47042 | 585 ft | 0 kts | 335° |
| 2026-05-01 07:48 | 50.46855 | 4.47042 | 585 ft | 0 kts | 335° |